NAN weather

Nadi International Airport
Nadi, Western, Fiji

Public forecast

Using degrees Celsius for public forecast. Weather courtesy of forecast.io.

Current aviation weather report (METAR) for Nadi International Airport

Retrieved 2019/10/21 19:00 UTC (1 minute ago):

NFFN 211900Z 13004KT 9999 FEW030 25/21 Q1013 NOSIG

Aviation forecast (TAF) for Nadi International Airport

Retrieved 2019/10/21 18:15 UTC (46 minutes ago):

TAF NFFN 211710Z 2118/2218 13006KT 9999 FEW030 BECMG 2122/2124 29010KT PROB30 TEMPO 2202/2206 5000 SHRA BKN015 BECMG 2204/2206 10007KT